sensor_id;sensor_type;location;lat;lon;timestamp;pressure;altitude;pressure_sealevel;temperature;humidity
79729;BME280;69218;52.132;5.418;2023-07-13T00:01:53;101456.91;;;16.94;70.07
79729;BME280;69218;52.132;5.418;2023-07-13T00:04:22;101456.22;;;16.92;71.04
79729;BME280;69218;52.132;5.418;2023-07-13T00:06:52;101460.28;;;16.86;71.50
79729;BME280;69218;52.132;5.418;2023-07-13T00:09:20;101456.09;;;16.84;70.40
79729;BME280;69218;52.132;5.418;2023-07-13T00:11:53;101452.63;;;16.83;71.43
79729;BME280;69218;52.132;5.418;2023-07-13T00:14:21;101458.06;;;16.82;70.51
79729;BME280;69218;52.132;5.418;2023-07-13T00:16:48;101457.41;;;16.80;71.17
79729;BME280;69218;52.132;5.418;2023-07-13T00:19:15;101460.31;;;16.77;71.21
79729;BME280;69218;52.132;5.418;2023-07-13T00:21:42;101458.97;;;16.72;70.47
79729;BME280;69218;52.132;5.418;2023-07-13T00:24:11;101459.13;;;16.71;70.61
79729;BME280;69218;52.132;5.418;2023-07-13T00:26:42;101456.72;;;16.68;71.04
79729;BME280;69218;52.132;5.418;2023-07-13T00:29:12;101460.34;;;16.67;70.81
79729;BME280;69218;52.132;5.418;2023-07-13T00:31:39;101461.50;;;16.64;71.54
79729;BME280;69218;52.132;5.418;2023-07-13T00:34:06;101458.97;;;16.63;71.21
79729;BME280;69218;52.132;5.418;2023-07-13T00:36:33;101459.28;;;16.60;71.15
79729;BME280;69218;52.132;5.418;2023-07-13T00:39:00;101456.09;;;16.56;71.37
79729;BME280;69218;52.132;5.418;2023-07-13T00:41:27;101450.81;;;16.56;71.27
79729;BME280;69218;52.132;5.418;2023-07-13T00:43:53;101456.22;;;16.55;71.58
79729;BME280;69218;52.132;5.418;2023-07-13T00:46:31;101454.72;;;16.52;71.49
79729;BME280;69218;52.132;5.418;2023-07-13T00:49:04;101457.50;;;16.51;71.41
79729;BME280;69218;52.132;5.418;2023-07-13T00:51:40;101455.84;;;16.50;70.47
79729;BME280;69218;52.132;5.418;2023-07-13T00:54:10;101460.44;;;16.47;71.12
79729;BME280;69218;52.132;5.418;2023-07-13T00:56:39;101458.34;;;16.41;72.28
79729;BME280;69218;52.132;5.418;2023-07-13T00:59:08;101455.44;;;16.35;71.44
79729;BME280;69218;52.132;5.418;2023-07-13T01:01:36;101460.91;;;16.33;71.98
79729;BME280;69218;52.132;5.418;2023-07-13T01:04:03;101457.56;;;16.31;71.04
79729;BME280;69218;52.132;5.418;2023-07-13T01:06:36;101457.00;;;16.28;71.53
79729;BME280;69218;52.132;5.418;2023-07-13T01:09:03;101448.25;;;16.27;71.56
79729;BME280;69218;52.132;5.418;2023-07-13T01:11:30;101454.97;;;16.22;71.78
79729;BME280;69218;52.132;5.418;2023-07-13T01:13:57;101460.25;;;16.22;72.27
79729;BME280;69218;52.132;5.418;2023-07-13T01:16:27;101462.34;;;16.18;72.93
79729;BME280;69218;52.132;5.418;2023-07-13T01:18:56;101471.94;;;16.19;72.82
79729;BME280;69218;52.132;5.418;2023-07-13T01:21:28;101470.44;;;16.16;72.92
79729;BME280;69218;52.132;5.418;2023-07-13T01:23:56;101478.63;;;16.13;72.00
79729;BME280;69218;52.132;5.418;2023-07-13T01:26:23;101472.66;;;16.11;73.27
79729;BME280;69218;52.132;5.418;2023-07-13T01:28:49;101482.81;;;16.06;73.55
79729;BME280;69218;52.132;5.418;2023-07-13T01:31:16;101467.25;;;16.03;72.48
79729;BME280;69218;52.132;5.418;2023-07-13T01:33:43;101472.53;;;16.03;72.76
79729;BME280;69218;52.132;5.418;2023-07-13T01:36:10;101475.34;;;16.02;72.92
79729;BME280;69218;52.132;5.418;2023-07-13T01:38:38;101480.88;;;15.99;72.85
79729;BME280;69218;52.132;5.418;2023-07-13T01:41:04;101469.78;;;15.95;72.92
79729;BME280;69218;52.132;5.418;2023-07-13T01:43:31;101475.22;;;15.93;71.92
79729;BME280;69218;52.132;5.418;2023-07-13T01:45:59;101475.47;;;15.90;73.14
79729;BME280;69218;52.132;5.418;2023-07-13T01:48:45;101479.94;;;15.90;72.86
79729;BME280;69218;52.132;5.418;2023-07-13T01:51:12;101471.59;;;15.85;73.13
79729;BME280;69218;52.132;5.418;2023-07-13T01:53:39;101474.53;;;15.82;72.74
79729;BME280;69218;52.132;5.418;2023-07-13T01:56:06;101480.78;;;15.81;73.32
79729;BME280;69218;52.132;5.418;2023-07-13T01:58:33;101478.28;;;15.79;73.86
79729;BME280;69218;52.132;5.418;2023-07-13T02:00:59;101474.09;;;15.77;73.63
79729;BME280;69218;52.132;5.418;2023-07-13T02:03:26;101476.75;;;15.77;73.91
79729;BME280;69218;52.132;5.418;2023-07-13T02:05:53;101478.69;;;15.75;72.92
79729;BME280;69218;52.132;5.418;2023-07-13T02:08:19;101481.63;;;15.72;74.35
79729;BME280;69218;52.132;5.418;2023-07-13T02:10:46;101485.66;;;15.66;73.57
79729;BME280;69218;52.132;5.418;2023-07-13T02:13:12;101478.97;;;15.62;74.32
79729;BME280;69218;52.132;5.418;2023-07-13T02:15:39;101485.34;;;15.59;74.80
79729;BME280;69218;52.132;5.418;2023-07-13T02:18:07;101488.97;;;15.58;73.87
79729;BME280;69218;52.132;5.418;2023-07-13T02:20:33;101489.09;;;15.57;75.56
79729;BME280;69218;52.132;5.418;2023-07-13T02:23:00;101485.06;;;15.53;75.04
79729;BME280;69218;52.132;5.418;2023-07-13T02:25:27;101483.66;;;15.49;75.93
79729;BME280;69218;52.132;5.418;2023-07-13T02:27:53;101483.81;;;15.47;74.59
79729;BME280;69218;52.132;5.418;2023-07-13T02:30:23;101489.09;;;15.47;75.70
79729;BME280;69218;52.132;5.418;2023-07-13T02:32:51;101486.75;;;15.44;74.09
79729;BME280;69218;52.132;5.418;2023-07-13T02:35:18;101484.22;;;15.43;75.12
79729;BME280;69218;52.132;5.418;2023-07-13T02:37:44;101489.50;;;15.43;74.15
79729;BME280;69218;52.132;5.418;2023-07-13T02:40:11;101489.63;;;15.41;74.15
79729;BME280;69218;52.132;5.418;2023-07-13T02:42:38;101497.72;;;15.39;75.65
79729;BME280;69218;52.132;5.418;2023-07-13T02:45:07;101500.63;;;15.36;74.12
79729;BME280;69218;52.132;5.418;2023-07-13T02:47:34;101492.81;;;15.35;73.91
79729;BME280;69218;52.132;5.418;2023-07-13T02:50:01;101494.91;;;15.31;74.46
79729;BME280;69218;52.132;5.418;2023-07-13T02:52:28;101495.06;;;15.30;74.88
79729;BME280;69218;52.132;5.418;2023-07-13T02:54:54;101483.94;;;15.26;76.06
79729;BME280;69218;52.132;5.418;2023-07-13T02:57:21;101487.53;;;15.25;76.49
79729;BME280;69218;52.132;5.418;2023-07-13T02:59:48;101492.38;;;15.20;76.61
79729;BME280;69218;52.132;5.418;2023-07-13T03:02:14;101490.03;;;15.17;77.24
79729;BME280;69218;52.132;5.418;2023-07-13T03:04:41;101494.75;;;15.14;77.68
79729;BME280;69218;52.132;5.418;2023-07-13T03:07:09;101495.03;;;15.10;77.97
79729;BME280;69218;52.132;5.418;2023-07-13T03:09:35;101499.31;;;15.11;77.72
79729;BME280;69218;52.132;5.418;2023-07-13T03:12:02;101500.44;;;15.09;77.95
79729;BME280;69218;52.132;5.418;2023-07-13T03:14:29;101503.19;;;15.07;77.09
79729;BME280;69218;52.132;5.418;2023-07-13T03:16:56;101503.47;;;15.04;78.71
79729;BME280;69218;52.132;5.418;2023-07-13T03:19:23;101501.81;;;15.03;78.38
79729;BME280;69218;52.132;5.418;2023-07-13T03:21:50;101497.50;;;15.02;78.63
79729;BME280;69218;52.132;5.418;2023-07-13T03:24:16;101498.34;;;15.03;76.38
79729;BME280;69218;52.132;5.418;2023-07-13T03:26:43;101501.13;;;15.01;77.19
79729;BME280;69218;52.132;5.418;2023-07-13T03:29:09;101504.00;;;14.98;76.47
79729;BME280;69218;52.132;5.418;2023-07-13T03:31:36;101504.72;;;15.00;77.06
79729;BME280;69218;52.132;5.418;2023-07-13T03:34:03;101505.69;;;14.99;77.01
79729;BME280;69218;52.132;5.418;2023-07-13T03:36:30;101513.47;;;15.01;77.31
79729;BME280;69218;52.132;5.418;2023-07-13T03:38:59;101512.75;;;14.99;76.55
79729;BME280;69218;52.132;5.418;2023-07-13T03:41:26;101524.31;;;14.98;76.62
79729;BME280;69218;52.132;5.418;2023-07-13T03:43:53;101526.09;;;14.97;77.83
79729;BME280;69218;52.132;5.418;2023-07-13T03:46:20;101523.31;;;14.99;75.82
79729;BME280;69218;52.132;5.418;2023-07-13T03:48:47;101525.97;;;14.99;78.37
79729;BME280;69218;52.132;5.418;2023-07-13T03:51:16;101521.81;;;14.96;78.52
79729;BME280;69218;52.132;5.418;2023-07-13T03:53:44;101524.16;;;14.99;77.38
79729;BME280;69218;52.132;5.418;2023-07-13T03:56:12;101524.75;;;15.03;77.58
79729;BME280;69218;52.132;5.418;2023-07-13T03:58:43;101537.53;;;15.07;77.54
79729;BME280;69218;52.132;5.418;2023-07-13T04:01:11;101542.81;;;15.07;79.10
79729;BME280;69218;52.132;5.418;2023-07-13T04:03:38;101532.97;;;15.09;77.07
79729;BME280;69218;52.132;5.418;2023-07-13T04:06:07;101533.06;;;15.08;78.52
79729;BME280;69218;52.132;5.418;2023-07-13T04:08:36;101543.38;;;15.11;78.86
79729;BME280;69218;52.132;5.418;2023-07-13T04:11:04;101546.59;;;15.15;78.15
79729;BME280;69218;52.132;5.418;2023-07-13T04:13:31;101546.19;;;15.19;77.28
79729;BME280;69218;52.132;5.418;2023-07-13T04:15:57;101546.03;;;15.21;77.45
79729;BME280;69218;52.132;5.418;2023-07-13T04:18:24;101551.22;;;15.22;76.41
79729;BME280;69218;52.132;5.418;2023-07-13T04:20:51;101547.47;;;15.25;76.12
79729;BME280;69218;52.132;5.418;2023-07-13T04:23:18;101555.09;;;15.28;77.18
79729;BME280;69218;52.132;5.418;2023-07-13T04:25:46;101550.53;;;15.30;77.32
79729;BME280;69218;52.132;5.418;2023-07-13T04:28:16;101546.09;;;15.30;76.44
79729;BME280;69218;52.132;5.418;2023-07-13T04:30:44;101556.22;;;15.35;77.11
79729;BME280;69218;52.132;5.418;2023-07-13T04:33:11;101563.63;;;15.41;77.02
79729;BME280;69218;52.132;5.418;2023-07-13T04:35:38;101563.38;;;15.44;77.24
79729;BME280;69218;52.132;5.418;2023-07-13T04:38:04;101562.09;;;15.48;78.08
79729;BME280;69218;52.132;5.418;2023-07-13T04:40:32;101559.06;;;15.53;77.88
79729;BME280;69218;52.132;5.418;2023-07-13T04:42:58;101559.06;;;15.53;79.11
79729;BME280;69218;52.132;5.418;2023-07-13T04:45:25;101560.44;;;15.57;79.36
79729;BME280;69218;52.132;5.418;2023-07-13T04:47:52;101553.66;;;15.64;77.82
79729;BME280;69218;52.132;5.418;2023-07-13T04:50:18;101561.88;;;15.71;78.91
79729;BME280;69218;52.132;5.418;2023-07-13T04:52:52;101559.13;;;15.72;79.38
79729;BME280;69218;52.132;5.418;2023-07-13T04:55:20;101562.16;;;15.77;78.69
79729;BME280;69218;52.132;5.418;2023-07-13T04:57:47;101568.03;;;15.81;79.31
79729;BME280;69218;52.132;5.418;2023-07-13T05:00:14;101562.19;;;15.87;79.57
79729;BME280;69218;52.132;5.418;2023-07-13T05:02:44;101562.88;;;15.89;78.45
79729;BME280;69218;52.132;5.418;2023-07-13T05:05:12;101558.84;;;15.95;80.02
79729;BME280;69218;52.132;5.418;2023-07-13T05:07:39;101562.31;;;16.05;79.42
79729;BME280;69218;52.132;5.418;2023-07-13T05:10:06;101563.16;;;16.15;77.41
79729;BME280;69218;52.132;5.418;2023-07-13T05:12:33;101573.88;;;16.23;78.09
79729;BME280;69218;52.132;5.418;2023-07-13T05:15:01;101573.31;;;16.29;78.01
79729;BME280;69218;52.132;5.418;2023-07-13T05:17:28;101575.25;;;16.27;78.65
79729;BME280;69218;52.132;5.418;2023-07-13T05:19:54;101575.97;;;16.29;79.19
79729;BME280;69218;52.132;5.418;2023-07-13T05:22:21;101576.50;;;16.33;77.74
79729;BME280;69218;52.132;5.418;2023-07-13T05:24:50;101577.91;;;16.37;78.93
79729;BME280;69218;52.132;5.418;2023-07-13T05:27:17;101587.19;;;16.41;79.26
79729;BME280;69218;52.132;5.418;2023-07-13T05:29:43;101581.78;;;16.42;77.37
79729;BME280;69218;52.132;5.418;2023-07-13T05:32:10;101582.88;;;16.40;79.14
79729;BME280;69218;52.132;5.418;2023-07-13T05:34:37;101583.84;;;16.48;78.67
79729;BME280;69218;52.132;5.418;2023-07-13T05:37:04;101586.50;;;16.58;78.49
79729;BME280;69218;52.132;5.418;2023-07-13T05:39:30;101592.06;;;16.65;79.26
79729;BME280;69218;52.132;5.418;2023-07-13T05:41:57;101590.91;;;16.67;79.08
79729;BME280;69218;52.132;5.418;2023-07-13T05:44:23;101591.63;;;16.69;79.72
79729;BME280;69218;52.132;5.418;2023-07-13T05:46:50;101600.28;;;16.71;78.77
79729;BME280;69218;52.132;5.418;2023-07-13T05:49:17;101601.66;;;16.75;78.14
79729;BME280;69218;52.132;5.418;2023-07-13T05:51:43;101599.72;;;16.78;78.37
79729;BME280;69218;52.132;5.418;2023-07-13T05:54:12;101610.16;;;16.79;78.90
79729;BME280;69218;52.132;5.418;2023-07-13T05:56:39;101599.66;;;16.87;79.32
79729;BME280;69218;52.132;5.418;2023-07-13T05:59:06;101606.91;;;16.95;78.11
79729;BME280;69218;52.132;5.418;2023-07-13T06:01:33;101616.91;;;17.01;78.10
79729;BME280;69218;52.132;5.418;2023-07-13T06:04:00;101613.94;;;17.14;79.20
79729;BME280;69218;52.132;5.418;2023-07-13T06:06:27;101613.22;;;17.12;78.44
79729;BME280;69218;52.132;5.418;2023-07-13T06:08:53;101621.34;;;17.10;78.30
79729;BME280;69218;52.132;5.418;2023-07-13T06:11:25;101618.78;;;17.18;77.67
79729;BME280;69218;52.132;5.418;2023-07-13T06:13:52;101625.16;;;17.25;77.86
79729;BME280;69218;52.132;5.418;2023-07-13T06:16:18;101635.88;;;17.34;78.51
79729;BME280;69218;52.132;5.418;2023-07-13T06:18:45;101634.34;;;17.41;78.00
79729;BME280;69218;52.132;5.418;2023-07-13T06:21:20;101633.28;;;17.51;78.13
79729;BME280;69218;52.132;5.418;2023-07-13T06:23:49;101629.88;;;17.59;77.52
79729;BME280;69218;52.132;5.418;2023-07-13T06:26:19;101631.22;;;17.73;77.25
79729;BME280;69218;52.132;5.418;2023-07-13T06:28:47;101638.34;;;17.72;76.76
79729;BME280;69218;52.132;5.418;2023-07-13T06:31:14;101633.78;;;17.65;76.59
79729;BME280;69218;52.132;5.418;2023-07-13T06:33:41;101651.19;;;17.67;77.45
79729;BME280;69218;52.132;5.418;2023-07-13T06:36:08;101642.25;;;17.78;77.13
79729;BME280;69218;52.132;5.418;2023-07-13T06:38:36;101644.81;;;17.88;77.53
79729;BME280;69218;52.132;5.418;2023-07-13T06:41:06;101648.69;;;17.93;75.99
79729;BME280;69218;52.132;5.418;2023-07-13T06:43:33;101647.69;;;17.94;76.95
79729;BME280;69218;52.132;5.418;2023-07-13T06:46:00;101645.13;;;18.02;76.21
79729;BME280;69218;52.132;5.418;2023-07-13T06:48:27;101640.81;;;18.01;75.06
79729;BME280;69218;52.132;5.418;2023-07-13T06:50:54;101644.00;;;18.05;75.92
79729;BME280;69218;52.132;5.418;2023-07-13T06:53:21;101638.94;;;18.11;76.46
79729;BME280;69218;52.132;5.418;2023-07-13T06:55:49;101641.09;;;18.16;76.20
79729;BME280;69218;52.132;5.418;2023-07-13T06:58:17;101641.50;;;18.21;76.03
79729;BME280;69218;52.132;5.418;2023-07-13T07:00:44;101647.94;;;18.36;75.13
79729;BME280;69218;52.132;5.418;2023-07-13T07:03:11;101652.59;;;18.60;74.55
79729;BME280;69218;52.132;5.418;2023-07-13T07:05:37;101646.91;;;18.99;74.23
79729;BME280;69218;52.132;5.418;2023-07-13T07:08:04;101661.94;;;19.16;73.56
79729;BME280;69218;52.132;5.418;2023-07-13T07:10:31;101665.72;;;19.06;73.00
79729;BME280;69218;52.132;5.418;2023-07-13T07:12:58;101655.50;;;18.93;72.92
79729;BME280;69218;52.132;5.418;2023-07-13T07:15:25;101668.84;;;19.01;73.78
79729;BME280;69218;52.132;5.418;2023-07-13T07:17:52;101668.75;;;19.11;72.32
79729;BME280;69218;52.132;5.418;2023-07-13T07:20:19;101661.66;;;19.19;72.88
79729;BME280;69218;52.132;5.418;2023-07-13T07:22:47;101669.66;;;19.28;72.54
79729;BME280;69218;52.132;5.418;2023-07-13T07:25:17;101674.66;;;19.31;72.46
79729;BME280;69218;52.132;5.418;2023-07-13T07:27:44;101672.13;;;19.21;72.42
79729;BME280;69218;52.132;5.418;2023-07-13T07:30:14;101674.56;;;19.14;74.07
79729;BME280;69218;52.132;5.418;2023-07-13T07:32:44;101684.34;;;19.06;74.66
79729;BME280;69218;52.132;5.418;2023-07-13T07:35:14;101678.13;;;18.97;75.60
79729;BME280;69218;52.132;5.418;2023-07-13T07:37:40;101677.75;;;18.92;77.46
79729;BME280;69218;52.132;5.418;2023-07-13T07:40:10;101683.69;;;18.86;76.71
79729;BME280;69218;52.132;5.418;2023-07-13T07:42:41;101677.59;;;18.93;76.41
79729;BME280;69218;52.132;5.418;2023-07-13T07:45:08;101672.81;;;18.97;78.45
79729;BME280;69218;52.132;5.418;2023-07-13T07:47:34;101670.28;;;18.96;77.43
79729;BME280;69218;52.132;5.418;2023-07-13T07:50:01;101663.94;;;18.88;78.29
79729;BME280;69218;52.132;5.418;2023-07-13T07:52:28;101668.63;;;18.94;78.52
79729;BME280;69218;52.132;5.418;2023-07-13T07:54:54;101664.72;;;19.07;77.95
79729;BME280;69218;52.132;5.418;2023-07-13T07:57:42;101658.13;;;19.11;77.51
79729;BME280;69218;52.132;5.418;2023-07-13T08:00:12;101650.81;;;19.13;76.13
79729;BME280;69218;52.132;5.418;2023-07-13T08:02:42;101657.78;;;19.14;76.26
79729;BME280;69218;52.132;5.418;2023-07-13T08:05:28;101658.19;;;19.27;75.31
79729;BME280;69218;52.132;5.418;2023-07-13T08:07:58;101660.44;;;19.48;76.36
79729;BME280;69218;52.132;5.418;2023-07-13T08:10:24;101668.34;;;19.66;75.84
79729;BME280;69218;52.132;5.418;2023-07-13T08:12:51;101667.94;;;19.95;76.49
79729;BME280;69218;52.132;5.418;2023-07-13T08:15:21;101674.75;;;19.97;74.86
79729;BME280;69218;52.132;5.418;2023-07-13T08:17:49;101670.09;;;19.99;72.18
79729;BME280;69218;52.132;5.418;2023-07-13T08:20:16;101669.09;;;20.00;74.57
79729;BME280;69218;52.132;5.418;2023-07-13T08:22:42;101662.31;;;20.14;72.43
79729;BME280;69218;52.132;5.418;2023-07-13T08:25:09;101660.34;;;20.24;72.88
79729;BME280;69218;52.132;5.418;2023-07-13T08:27:35;101659.81;;;20.13;72.02
79729;BME280;69218;52.132;5.418;2023-07-13T08:30:02;101673.94;;;20.05;71.91
79729;BME280;69218;52.132;5.418;2023-07-13T08:32:29;101665.47;;;20.10;70.47
79729;BME280;69218;52.132;5.418;2023-07-13T08:34:56;101665.66;;;20.16;72.49
79729;BME280;69218;52.132;5.418;2023-07-13T08:37:23;101660.00;;;20.36;72.33
79729;BME280;69218;52.132;5.418;2023-07-13T08:39:49;101651.50;;;20.81;69.29
79729;BME280;69218;52.132;5.418;2023-07-13T08:45:12;101649.44;;;20.99;69.05
79729;BME280;69218;52.132;5.418;2023-07-13T08:47:55;101665.78;;;21.04;68.53
79729;BME280;69218;52.132;5.418;2023-07-13T08:50:27;101675.94;;;21.09;68.02
79729;BME280;69218;52.132;5.418;2023-07-13T08:52:58;101682.88;;;21.26;66.16
79729;BME280;69218;52.132;5.418;2023-07-13T08:55:32;101691.47;;;20.97;62.57
79729;BME280;69218;52.132;5.418;2023-07-13T08:58:07;101684.50;;;20.80;63.92
79729;BME280;69218;52.132;5.418;2023-07-13T09:01:05;101688.69;;;20.58;65.60
79729;BME280;69218;52.132;5.418;2023-07-13T09:03:40;101693.59;;;20.37;64.95
79729;BME280;69218;52.132;5.418;2023-07-13T09:06:11;101695.09;;;20.15;64.18
79729;BME280;69218;52.132;5.418;2023-07-13T09:08:55;101700.41;;;20.07;65.86
79729;BME280;69218;52.132;5.418;2023-07-13T09:11:36;101690.44;;;20.09;65.72
79729;BME280;69218;52.132;5.418;2023-07-13T09:14:24;101686.44;;;20.13;67.39
79729;BME280;69218;52.132;5.418;2023-07-13T09:16:56;101684.25;;;20.08;67.44
79729;BME280;69218;52.132;5.418;2023-07-13T09:19:32;101695.25;;;20.13;68.81
79729;BME280;69218;52.132;5.418;2023-07-13T09:22:03;101689.09;;;20.13;68.10
79729;BME280;69218;52.132;5.418;2023-07-13T09:27:19;101684.94;;;20.10;70.77
79729;BME280;69218;52.132;5.418;2023-07-13T09:32:47;101693.66;;;20.45;72.79
79729;BME280;69218;52.132;5.418;2023-07-13T09:35:17;101691.47;;;20.89;70.16
79729;BME280;69218;52.132;5.418;2023-07-13T09:37:45;101695.78;;;20.98;66.24
79729;BME280;69218;52.132;5.418;2023-07-13T09:40:30;101680.59;;;21.15;67.55
79729;BME280;69218;52.132;5.418;2023-07-13T09:43:03;101691.69;;;21.51;66.07
79729;BME280;69218;52.132;5.418;2023-07-13T09:45:33;101676.69;;;21.50;65.39
79729;BME280;69218;52.132;5.418;2023-07-13T09:48:06;101694.44;;;21.10;65.64
79729;BME280;69218;52.132;5.418;2023-07-13T09:50:34;101698.16;;;20.77;65.69
79729;BME280;69218;52.132;5.418;2023-07-13T09:53:01;101717.13;;;20.49;68.17
79729;BME280;69218;52.132;5.418;2023-07-13T09:57:57;101756.63;;;20.03;72.62
79729;BME280;69218;52.132;5.418;2023-07-13T10:00:28;101742.72;;;19.75;71.68
79729;BME280;69218;52.132;5.418;2023-07-13T10:03:01;101740.88;;;19.42;70.35
79729;BME280;69218;52.132;5.418;2023-07-13T10:05:40;101734.38;;;19.44;70.47
79729;BME280;69218;52.132;5.418;2023-07-13T10:08:27;101742.66;;;19.33;71.98
79729;BME280;69218;52.132;5.418;2023-07-13T10:13:32;101729.47;;;19.92;70.41
79729;BME280;69218;52.132;5.418;2023-07-13T10:16:04;101728.16;;;19.96;70.49
79729;BME280;69218;52.132;5.418;2023-07-13T10:18:46;101731.25;;;20.34;72.00
79729;BME280;69218;52.132;5.418;2023-07-13T10:21:20;101744.13;;;20.71;72.42
79729;BME280;69218;52.132;5.418;2023-07-13T10:30:39;101742.22;;;21.20;72.49
79729;BME280;69218;52.132;5.418;2023-07-13T10:36:51;101731.34;;;21.54;69.99
79729;BME280;69218;52.132;5.418;2023-07-13T10:38:53;101734.94;;;21.30;67.79
79729;BME280;69218;52.132;5.418;2023-07-13T10:44:21;101729.09;;;21.10;69.47
79729;BME280;69218;52.132;5.418;2023-07-13T10:46:55;101745.97;;;20.95;71.45
79729;BME280;69218;52.132;5.418;2023-07-13T10:49:46;101742.09;;;20.97;72.34
79729;BME280;69218;52.132;5.418;2023-07-13T10:57:48;101735.69;;;21.47;67.94
79729;BME280;69218;52.132;5.418;2023-07-13T11:00:18;101749.13;;;21.70;66.66
79729;BME280;69218;52.132;5.418;2023-07-13T11:02:56;101744.16;;;21.98;69.11
79729;BME280;69218;52.132;5.418;2023-07-13T11:05:32;101752.66;;;22.10;65.84
79729;BME280;69218;52.132;5.418;2023-07-13T11:08:18;101757.19;;;22.01;62.59
79729;BME280;69218;52.132;5.418;2023-07-13T11:10:53;101756.34;;;22.32;65.30
79729;BME280;69218;52.132;5.418;2023-07-13T11:16:36;101760.66;;;22.87;59.89
79729;BME280;69218;52.132;5.418;2023-07-13T11:21:30;101749.56;;;23.27;59.76
79729;BME280;69218;52.132;5.418;2023-07-13T11:24:17;101759.44;;;22.89;59.54
79729;BME280;69218;52.132;5.418;2023-07-13T11:32:22;101743.06;;;22.46;61.53
79729;BME280;69218;52.132;5.418;2023-07-13T11:34:50;101748.53;;;22.30;59.83
79729;BME280;69218;52.132;5.418;2023-07-13T11:37:18;101748.41;;;22.24;61.96
79729;BME280;69218;52.132;5.418;2023-07-13T11:39:48;101752.47;;;22.03;61.92
79729;BME280;69218;52.132;5.418;2023-07-13T11:42:20;101768.16;;;21.67;67.22
79729;BME280;69218;52.132;5.418;2023-07-13T11:44:50;101780.66;;;21.75;68.49
79729;BME280;69218;52.132;5.418;2023-07-13T11:47:40;101783.84;;;21.62;68.19
79729;BME280;69218;52.132;5.418;2023-07-13T11:50:22;101785.38;;;21.48;67.72
79729;BME280;69218;52.132;5.418;2023-07-13T11:52:50;101783.56;;;21.41;66.96
79729;BME280;69218;52.132;5.418;2023-07-13T11:58:22;101780.75;;;21.18;66.05
79729;BME280;69218;52.132;5.418;2023-07-13T12:00:51;101779.59;;;21.12;66.00
79729;BME280;69218;52.132;5.418;2023-07-13T12:03:22;101785.44;;;21.16;67.30
79729;BME280;69218;52.132;5.418;2023-07-13T12:06:35;101788.25;;;21.22;67.29
79729;BME280;69218;52.132;5.418;2023-07-13T12:09:12;101782.78;;;21.16;69.06
79729;BME280;69218;52.132;5.418;2023-07-13T12:11:43;101780.09;;;21.16;70.29
79729;BME280;69218;52.132;5.418;2023-07-13T12:14:19;101784.59;;;21.31;67.98
79729;BME280;69218;52.132;5.418;2023-07-13T12:16:47;101783.59;;;21.24;69.85
79729;BME280;69218;52.132;5.418;2023-07-13T12:19:21;101782.91;;;21.14;68.30
79729;BME280;69218;52.132;5.418;2023-07-13T12:21:48;101783.91;;;21.13;69.32
79729;BME280;69218;52.132;5.418;2023-07-13T12:24:18;101787.25;;;21.23;70.35
79729;BME280;69218;52.132;5.418;2023-07-13T12:27:00;101787.72;;;21.27;69.47
79729;BME280;69218;52.132;5.418;2023-07-13T12:29:28;101785.94;;;21.35;69.45
79729;BME280;69218;52.132;5.418;2023-07-13T12:32:08;101784.91;;;21.45;68.99
79729;BME280;69218;52.132;5.418;2023-07-13T12:37:34;101779.47;;;21.77;66.42
79729;BME280;69218;52.132;5.418;2023-07-13T12:40:01;101783.56;;;21.96;65.78
79729;BME280;69218;52.132;5.418;2023-07-13T12:42:33;101794.72;;;22.39;65.80
79729;BME280;69218;52.132;5.418;2023-07-13T12:45:11;101774.34;;;22.61;67.33
79729;BME280;69218;52.132;5.418;2023-07-13T12:47:42;101780.34;;;22.40;66.48
79729;BME280;69218;52.132;5.418;2023-07-13T12:50:16;101778.59;;;21.93;64.21
79729;BME280;69218;52.132;5.418;2023-07-13T12:52:44;101778.91;;;21.51;65.06
79729;BME280;69218;52.132;5.418;2023-07-13T12:55:14;101777.91;;;21.27;66.19
79729;BME280;69218;52.132;5.418;2023-07-13T12:57:54;101782.66;;;21.73;65.35
79729;BME280;69218;52.132;5.418;2023-07-13T13:02:50;101767.22;;;22.30;61.14
79729;BME280;69218;52.132;5.418;2023-07-13T13:05:17;101777.47;;;22.18;63.87
79729;BME280;69218;52.132;5.418;2023-07-13T13:07:44;101781.72;;;21.97;64.21
79729;BME280;69218;52.132;5.418;2023-07-13T13:10:14;101778.34;;;21.72;61.95
79729;BME280;69218;52.132;5.418;2023-07-13T13:12:41;101782.13;;;21.77;65.37
79729;BME280;69218;52.132;5.418;2023-07-13T13:15:11;101782.13;;;22.25;65.40
79729;BME280;69218;52.132;5.418;2023-07-13T13:17:38;101784.13;;;22.23;61.92
79729;BME280;69218;52.132;5.418;2023-07-13T13:20:21;101790.50;;;22.22;63.75
79729;BME280;69218;52.132;5.418;2023-07-13T13:22:48;101784.66;;;22.18;60.20
79729;BME280;69218;52.132;5.418;2023-07-13T13:25:15;101784.59;;;22.26;62.64
79729;BME280;69218;52.132;5.418;2023-07-13T13:27:42;101784.72;;;22.33;64.64
79729;BME280;69218;52.132;5.418;2023-07-13T13:30:13;101789.31;;;22.24;63.74
79729;BME280;69218;52.132;5.418;2023-07-13T13:32:45;101784.91;;;22.62;63.07
79729;BME280;69218;52.132;5.418;2023-07-13T13:35:17;101783.94;;;22.78;59.41
79729;BME280;69218;52.132;5.418;2023-07-13T13:37:45;101787.97;;;22.51;58.55
79729;BME280;69218;52.132;5.418;2023-07-13T13:40:21;101787.53;;;22.39;60.74
79729;BME280;69218;52.132;5.418;2023-07-13T13:42:49;101790.88;;;22.10;58.63
79729;BME280;69218;52.132;5.418;2023-07-13T13:45:18;101787.50;;;22.16;58.86
79729;BME280;69218;52.132;5.418;2023-07-13T13:47:47;101793.03;;;22.15;62.61
79729;BME280;69218;52.132;5.418;2023-07-13T13:52:54;101795.03;;;22.05;57.91
79729;BME280;69218;52.132;5.418;2023-07-13T13:55:23;101793.22;;;22.13;59.81
79729;BME280;69218;52.132;5.418;2023-07-13T13:57:50;101794.88;;;22.06;58.38